sensor_id;sensor_type;location;lat;lon;timestamp;temperature;humidity
12704;DHT22;6416;52.182;7.650;2023-05-07T00:02:12;19.40;56.20
12704;DHT22;6416;52.182;7.650;2023-05-07T00:04:37;19.40;56.30
12704;DHT22;6416;52.182;7.650;2023-05-07T00:07:03;19.30;56.30
12704;DHT22;6416;52.182;7.650;2023-05-07T00:09:28;19.30;56.40
12704;DHT22;6416;52.182;7.650;2023-05-07T00:11:54;19.30;56.50
12704;DHT22;6416;52.182;7.650;2023-05-07T00:14:19;19.30;56.50
12704;DHT22;6416;52.182;7.650;2023-05-07T00:16:45;19.20;56.50
12704;DHT22;6416;52.182;7.650;2023-05-07T00:19:10;19.20;56.50
12704;DHT22;6416;52.182;7.650;2023-05-07T00:21:36;19.20;56.60
12704;DHT22;6416;52.182;7.650;2023-05-07T00:24:01;19.20;56.70
12704;DHT22;6416;52.182;7.650;2023-05-07T00:26:27;19.10;56.70
12704;DHT22;6416;52.182;7.650;2023-05-07T00:28:52;19.10;56.80
12704;DHT22;6416;52.182;7.650;2023-05-07T00:31:18;19.10;56.80
12704;DHT22;6416;52.182;7.650;2023-05-07T00:33:43;19.00;56.80
12704;DHT22;6416;52.182;7.650;2023-05-07T00:36:09;19.00;56.90
12704;DHT22;6416;52.182;7.650;2023-05-07T00:38:34;18.90;56.90
12704;DHT22;6416;52.182;7.650;2023-05-07T00:41:00;18.90;57.00
12704;DHT22;6416;52.182;7.650;2023-05-07T00:43:25;18.90;57.10
12704;DHT22;6416;52.182;7.650;2023-05-07T00:45:51;18.80;57.00
12704;DHT22;6416;52.182;7.650;2023-05-07T00:48:16;18.80;57.10
12704;DHT22;6416;52.182;7.650;2023-05-07T00:50:42;18.80;57.20
12704;DHT22;6416;52.182;7.650;2023-05-07T00:53:08;18.70;57.10
12704;DHT22;6416;52.182;7.650;2023-05-07T00:55:35;18.70;57.30
12704;DHT22;6416;52.182;7.650;2023-05-07T00:58:01;18.70;57.30
12704;DHT22;6416;52.182;7.650;2023-05-07T01:00:26;18.60;57.20
12704;DHT22;6416;52.182;7.650;2023-05-07T01:02:52;18.60;57.30
12704;DHT22;6416;52.182;7.650;2023-05-07T01:05:19;18.60;57.30
12704;DHT22;6416;52.182;7.650;2023-05-07T01:07:45;18.60;57.40
12704;DHT22;6416;52.182;7.650;2023-05-07T01:10:12;18.50;57.30
12704;DHT22;6416;52.182;7.650;2023-05-07T01:12:39;18.50;57.40
12704;DHT22;6416;52.182;7.650;2023-05-07T01:15:06;18.50;57.60
12704;DHT22;6416;52.182;7.650;2023-05-07T01:17:36;18.40;57.40
12704;DHT22;6416;52.182;7.650;2023-05-07T01:20:04;18.40;57.80
12704;DHT22;6416;52.182;7.650;2023-05-07T01:22:34;18.40;57.60
12704;DHT22;6416;52.182;7.650;2023-05-07T01:25:00;18.30;57.60
12704;DHT22;6416;52.182;7.650;2023-05-07T01:27:25;18.30;57.50
12704;DHT22;6416;52.182;7.650;2023-05-07T01:29:51;18.30;57.60
12704;DHT22;6416;52.182;7.650;2023-05-07T01:32:18;18.20;57.60
12704;DHT22;6416;52.182;7.650;2023-05-07T01:34:48;18.20;57.70
12704;DHT22;6416;52.182;7.650;2023-05-07T01:37:14;18.10;57.80
12704;DHT22;6416;52.182;7.650;2023-05-07T01:39:40;18.10;57.80
12704;DHT22;6416;52.182;7.650;2023-05-07T01:42:06;18.10;57.80
12704;DHT22;6416;52.182;7.650;2023-05-07T01:44:32;18.00;58.50
12704;DHT22;6416;52.182;7.650;2023-05-07T01:46:58;18.00;57.80
12704;DHT22;6416;52.182;7.650;2023-05-07T01:49:23;18.00;58.00
12704;DHT22;6416;52.182;7.650;2023-05-07T01:51:49;18.00;58.10
12704;DHT22;6416;52.182;7.650;2023-05-07T01:54:15;18.00;58.10
12704;DHT22;6416;52.182;7.650;2023-05-07T01:56:41;17.90;58.10
12704;DHT22;6416;52.182;7.650;2023-05-07T01:59:06;17.90;58.00
12704;DHT22;6416;52.182;7.650;2023-05-07T02:01:31;17.90;58.00
12704;DHT22;6416;52.182;7.650;2023-05-07T02:03:57;17.90;58.10
12704;DHT22;6416;52.182;7.650;2023-05-07T02:06:22;17.80;58.00
12704;DHT22;6416;52.182;7.650;2023-05-07T02:08:48;17.80;58.10
12704;DHT22;6416;52.182;7.650;2023-05-07T02:11:13;17.80;58.10
12704;DHT22;6416;52.182;7.650;2023-05-07T02:13:39;17.70;58.00
12704;DHT22;6416;52.182;7.650;2023-05-07T02:16:04;17.80;58.20
12704;DHT22;6416;52.182;7.650;2023-05-07T02:18:30;17.70;58.10
12704;DHT22;6416;52.182;7.650;2023-05-07T02:20:56;17.60;58.10
12704;DHT22;6416;52.182;7.650;2023-05-07T02:23:21;17.60;58.10
12704;DHT22;6416;52.182;7.650;2023-05-07T02:25:46;17.60;58.30
12704;DHT22;6416;52.182;7.650;2023-05-07T02:28:12;17.50;58.20
12704;DHT22;6416;52.182;7.650;2023-05-07T02:30:38;17.50;58.20
12704;DHT22;6416;52.182;7.650;2023-05-07T02:33:04;17.50;58.30
12704;DHT22;6416;52.182;7.650;2023-05-07T02:35:29;17.40;58.30
12704;DHT22;6416;52.182;7.650;2023-05-07T02:37:55;17.40;58.30
12704;DHT22;6416;52.182;7.650;2023-05-07T02:40:20;17.30;58.40
12704;DHT22;6416;52.182;7.650;2023-05-07T02:42:46;17.40;59.40
12704;DHT22;6416;52.182;7.650;2023-05-07T02:45:11;17.30;58.50
12704;DHT22;6416;52.182;7.650;2023-05-07T02:47:37;17.30;58.60
12704;DHT22;6416;52.182;7.650;2023-05-07T02:50:03;17.30;58.60
12704;DHT22;6416;52.182;7.650;2023-05-07T02:52:28;17.20;58.70
12704;DHT22;6416;52.182;7.650;2023-05-07T02:54:54;17.20;58.70
12704;DHT22;6416;52.182;7.650;2023-05-07T02:57:19;17.20;58.70
12704;DHT22;6416;52.182;7.650;2023-05-07T02:59:44;17.20;58.90
12704;DHT22;6416;52.182;7.650;2023-05-07T03:02:10;17.20;58.80
12704;DHT22;6416;52.182;7.650;2023-05-07T03:04:35;17.20;59.00
12704;DHT22;6416;52.182;7.650;2023-05-07T03:07:01;17.20;59.10
12704;DHT22;6416;52.182;7.650;2023-05-07T03:09:26;17.10;59.00
12704;DHT22;6416;52.182;7.650;2023-05-07T03:11:52;17.10;59.10
12704;DHT22;6416;52.182;7.650;2023-05-07T03:14:17;17.10;59.10
12704;DHT22;6416;52.182;7.650;2023-05-07T03:16:43;17.10;59.20
12704;DHT22;6416;52.182;7.650;2023-05-07T03:19:08;17.10;59.10
12704;DHT22;6416;52.182;7.650;2023-05-07T03:21:34;17.10;59.80
12704;DHT22;6416;52.182;7.650;2023-05-07T03:24:00;17.00;59.00
12704;DHT22;6416;52.182;7.650;2023-05-07T03:26:25;17.10;59.10
12704;DHT22;6416;52.182;7.650;2023-05-07T03:28:51;17.00;59.60
12704;DHT22;6416;52.182;7.650;2023-05-07T03:31:17;17.00;59.10
12704;DHT22;6416;52.182;7.650;2023-05-07T03:33:53;17.00;59.00
12704;DHT22;6416;52.182;7.650;2023-05-07T03:36:19;17.00;59.70
12704;DHT22;6416;52.182;7.650;2023-05-07T03:38:45;16.90;59.00
12704;DHT22;6416;52.182;7.650;2023-05-07T03:41:11;16.90;59.10
12704;DHT22;6416;52.182;7.650;2023-05-07T03:43:37;16.80;59.20
12704;DHT22;6416;52.182;7.650;2023-05-07T03:46:02;16.80;59.30
12704;DHT22;6416;52.182;7.650;2023-05-07T03:48:28;16.80;59.30
12704;DHT22;6416;52.182;7.650;2023-05-07T03:50:53;16.80;59.40
12704;DHT22;6416;52.182;7.650;2023-05-07T03:53:19;16.80;59.40
12704;DHT22;6416;52.182;7.650;2023-05-07T03:55:44;16.70;59.40
12704;DHT22;6416;52.182;7.650;2023-05-07T03:58:09;16.70;59.50
12704;DHT22;6416;52.182;7.650;2023-05-07T04:00:35;16.70;59.60
12704;DHT22;6416;52.182;7.650;2023-05-07T04:03:00;16.70;59.60
12704;DHT22;6416;52.182;7.650;2023-05-07T04:05:26;16.70;59.70
12704;DHT22;6416;52.182;7.650;2023-05-07T04:07:51;16.70;59.80
12704;DHT22;6416;52.182;7.650;2023-05-07T04:10:17;16.70;59.70
12704;DHT22;6416;52.182;7.650;2023-05-07T04:12:42;16.70;59.80
12704;DHT22;6416;52.182;7.650;2023-05-07T04:15:08;16.70;59.80
12704;DHT22;6416;52.182;7.650;2023-05-07T04:17:33;16.70;59.80
12704;DHT22;6416;52.182;7.650;2023-05-07T04:19:59;16.70;59.80
12704;DHT22;6416;52.182;7.650;2023-05-07T04:22:24;16.60;59.80
12704;DHT22;6416;52.182;7.650;2023-05-07T04:24:50;16.60;59.80
12704;DHT22;6416;52.182;7.650;2023-05-07T04:27:15;16.60;60.00
12704;DHT22;6416;52.182;7.650;2023-05-07T04:29:41;16.60;60.00
12704;DHT22;6416;52.182;7.650;2023-05-07T04:32:06;16.60;60.00
12704;DHT22;6416;52.182;7.650;2023-05-07T04:34:32;16.60;60.00
12704;DHT22;6416;52.182;7.650;2023-05-07T04:36:58;16.60;60.00
12704;DHT22;6416;52.182;7.650;2023-05-07T04:39:24;16.60;60.10
12704;DHT22;6416;52.182;7.650;2023-05-07T04:41:49;16.60;60.20
12704;DHT22;6416;52.182;7.650;2023-05-07T04:44:15;16.70;60.30
12704;DHT22;6416;52.182;7.650;2023-05-07T04:46:40;16.60;60.10
12704;DHT22;6416;52.182;7.650;2023-05-07T04:49:06;16.60;60.10
12704;DHT22;6416;52.182;7.650;2023-05-07T04:51:31;16.60;60.20
12704;DHT22;6416;52.182;7.650;2023-05-07T04:53:57;16.60;60.20
12704;DHT22;6416;52.182;7.650;2023-05-07T04:56:22;16.70;60.40
12704;DHT22;6416;52.182;7.650;2023-05-07T04:58:47;16.70;60.50
12704;DHT22;6416;52.182;7.650;2023-05-07T05:01:13;16.70;60.60
12704;DHT22;6416;52.182;7.650;2023-05-07T05:03:38;16.70;60.60
12704;DHT22;6416;52.182;7.650;2023-05-07T05:06:04;16.70;60.50
12704;DHT22;6416;52.182;7.650;2023-05-07T05:08:30;16.70;60.50
12704;DHT22;6416;52.182;7.650;2023-05-07T05:10:55;16.70;60.40
12704;DHT22;6416;52.182;7.650;2023-05-07T05:13:21;16.70;60.50
12704;DHT22;6416;52.182;7.650;2023-05-07T05:15:46;16.70;60.60
12704;DHT22;6416;52.182;7.650;2023-05-07T05:18:12;16.70;60.60
12704;DHT22;6416;52.182;7.650;2023-05-07T05:20:38;16.70;60.50
12704;DHT22;6416;52.182;7.650;2023-05-07T05:23:04;16.70;60.50
12704;DHT22;6416;52.182;7.650;2023-05-07T05:25:29;16.70;60.60
12704;DHT22;6416;52.182;7.650;2023-05-07T05:27:54;16.70;60.60
12704;DHT22;6416;52.182;7.650;2023-05-07T05:30:20;16.70;60.70
12704;DHT22;6416;52.182;7.650;2023-05-07T05:32:45;16.80;60.80
12704;DHT22;6416;52.182;7.650;2023-05-07T05:35:11;16.80;60.80
12704;DHT22;6416;52.182;7.650;2023-05-07T05:37:36;16.80;60.70
12704;DHT22;6416;52.182;7.650;2023-05-07T05:40:02;16.90;61.00
12704;DHT22;6416;52.182;7.650;2023-05-07T05:42:27;16.90;61.00
12704;DHT22;6416;52.182;7.650;2023-05-07T05:44:53;16.90;61.00
12704;DHT22;6416;52.182;7.650;2023-05-07T05:47:18;17.00;61.20
12704;DHT22;6416;52.182;7.650;2023-05-07T05:49:44;17.10;61.30
12704;DHT22;6416;52.182;7.650;2023-05-07T05:52:11;17.10;61.30
12704;DHT22;6416;52.182;7.650;2023-05-07T05:54:37;17.20;61.50
12704;DHT22;6416;52.182;7.650;2023-05-07T05:57:02;17.30;61.30
12704;DHT22;6416;52.182;7.650;2023-05-07T05:59:29;17.40;61.30
12704;DHT22;6416;52.182;7.650;2023-05-07T06:01:54;17.50;61.10
12704;DHT22;6416;52.182;7.650;2023-05-07T06:04:20;17.50;61.10
12704;DHT22;6416;52.182;7.650;2023-05-07T06:06:45;17.60;61.00
12704;DHT22;6416;52.182;7.650;2023-05-07T06:09:11;17.60;60.90
12704;DHT22;6416;52.182;7.650;2023-05-07T06:11:36;17.70;60.80
12704;DHT22;6416;52.182;7.650;2023-05-07T06:14:02;17.70;60.80
12704;DHT22;6416;52.182;7.650;2023-05-07T06:16:28;17.70;60.70
12704;DHT22;6416;52.182;7.650;2023-05-07T06:18:54;17.80;60.80
12704;DHT22;6416;52.182;7.650;2023-05-07T06:21:19;17.80;60.70
12704;DHT22;6416;52.182;7.650;2023-05-07T06:23:44;17.90;60.80
12704;DHT22;6416;52.182;7.650;2023-05-07T06:26:10;17.90;60.70
12704;DHT22;6416;52.182;7.650;2023-05-07T06:28:35;18.00;60.90
12704;DHT22;6416;52.182;7.650;2023-05-07T06:31:18;18.00;60.70
12704;DHT22;6416;52.182;7.650;2023-05-07T06:33:44;18.10;61.10
12704;DHT22;6416;52.182;7.650;2023-05-07T06:36:10;18.20;61.00
12704;DHT22;6416;52.182;7.650;2023-05-07T06:38:35;18.30;61.00
12704;DHT22;6416;52.182;7.650;2023-05-07T06:41:01;18.40;61.20
12704;DHT22;6416;52.182;7.650;2023-05-07T06:43:26;18.50;61.30
12704;DHT22;6416;52.182;7.650;2023-05-07T06:45:52;18.70;61.80
12704;DHT22;6416;52.182;7.650;2023-05-07T06:48:17;19.00;62.00
12704;DHT22;6416;52.182;7.650;2023-05-07T06:50:43;19.20;61.70
12704;DHT22;6416;52.182;7.650;2023-05-07T06:53:08;19.40;61.20
12704;DHT22;6416;52.182;7.650;2023-05-07T06:55:34;19.60;60.80
12704;DHT22;6416;52.182;7.650;2023-05-07T06:57:59;19.70;60.30
12704;DHT22;6416;52.182;7.650;2023-05-07T07:00:25;19.80;59.70
12704;DHT22;6416;52.182;7.650;2023-05-07T07:02:50;19.90;59.00
12704;DHT22;6416;52.182;7.650;2023-05-07T07:05:15;19.90;58.70
12704;DHT22;6416;52.182;7.650;2023-05-07T07:07:41;19.80;58.50
12704;DHT22;6416;52.182;7.650;2023-05-07T07:10:07;19.80;58.60
12704;DHT22;6416;52.182;7.650;2023-05-07T07:12:33;19.80;58.60
12704;DHT22;6416;52.182;7.650;2023-05-07T07:14:58;19.70;58.50
12704;DHT22;6416;52.182;7.650;2023-05-07T07:17:24;19.70;58.60
12704;DHT22;6416;52.182;7.650;2023-05-07T07:19:49;19.60;58.50
12704;DHT22;6416;52.182;7.650;2023-05-07T07:22:15;19.60;58.50
12704;DHT22;6416;52.182;7.650;2023-05-07T07:24:41;19.50;58.30
12704;DHT22;6416;52.182;7.650;2023-05-07T07:27:06;19.50;58.40
12704;DHT22;6416;52.182;7.650;2023-05-07T07:29:31;19.50;58.50
12704;DHT22;6416;52.182;7.650;2023-05-07T07:31:57;19.40;58.50
12704;DHT22;6416;52.182;7.650;2023-05-07T07:34:22;19.40;58.60
12704;DHT22;6416;52.182;7.650;2023-05-07T07:36:48;19.30;58.60
12704;DHT22;6416;52.182;7.650;2023-05-07T07:39:13;19.30;58.80
12704;DHT22;6416;52.182;7.650;2023-05-07T07:41:39;19.30;58.90
12704;DHT22;6416;52.182;7.650;2023-05-07T07:44:04;19.30;59.00
12704;DHT22;6416;52.182;7.650;2023-05-07T07:46:30;19.40;59.10
12704;DHT22;6416;52.182;7.650;2023-05-07T07:48:55;19.40;59.10
12704;DHT22;6416;52.182;7.650;2023-05-07T07:51:21;19.40;59.50
12704;DHT22;6416;52.182;7.650;2023-05-07T07:53:46;19.50;59.20
12704;DHT22;6416;52.182;7.650;2023-05-07T07:56:12;19.50;59.20
12704;DHT22;6416;52.182;7.650;2023-05-07T07:58:37;19.60;60.00
12704;DHT22;6416;52.182;7.650;2023-05-07T08:01:03;19.60;59.10
12704;DHT22;6416;52.182;7.650;2023-05-07T08:03:28;19.60;59.10
12704;DHT22;6416;52.182;7.650;2023-05-07T08:05:54;19.60;59.00
12704;DHT22;6416;52.182;7.650;2023-05-07T08:08:19;19.70;59.10
12704;DHT22;6416;52.182;7.650;2023-05-07T08:10:45;19.80;59.20
12704;DHT22;6416;52.182;7.650;2023-05-07T08:13:10;19.80;59.30
12704;DHT22;6416;52.182;7.650;2023-05-07T08:15:36;19.90;59.30
12704;DHT22;6416;52.182;7.650;2023-05-07T08:18:02;20.00;59.70
12704;DHT22;6416;52.182;7.650;2023-05-07T08:20:28;20.20;60.00
12704;DHT22;6416;52.182;7.650;2023-05-07T08:22:54;20.50;60.20
12704;DHT22;6416;52.182;7.650;2023-05-07T08:25:19;20.70;59.70
12704;DHT22;6416;52.182;7.650;2023-05-07T08:27:44;20.90;59.50
12704;DHT22;6416;52.182;7.650;2023-05-07T08:30:10;21.10;59.20
12704;DHT22;6416;52.182;7.650;2023-05-07T08:32:36;21.20;58.80
12704;DHT22;6416;52.182;7.650;2023-05-07T08:35:02;21.30;58.40
12704;DHT22;6416;52.182;7.650;2023-05-07T08:37:27;21.30;58.00
12704;DHT22;6416;52.182;7.650;2023-05-07T08:39:53;21.40;57.90
12704;DHT22;6416;52.182;7.650;2023-05-07T08:42:18;21.40;57.70
12704;DHT22;6416;52.182;7.650;2023-05-07T08:44:46;21.50;57.80
12704;DHT22;6416;52.182;7.650;2023-05-07T08:47:11;21.60;57.90
12704;DHT22;6416;52.182;7.650;2023-05-07T08:49:38;21.70;58.00
12704;DHT22;6416;52.182;7.650;2023-05-07T08:52:03;21.80;58.10
12704;DHT22;6416;52.182;7.650;2023-05-07T08:54:30;22.00;58.30
12704;DHT22;6416;52.182;7.650;2023-05-07T08:56:56;22.20;58.20
12704;DHT22;6416;52.182;7.650;2023-05-07T08:59:22;22.50;58.60
12704;DHT22;6416;52.182;7.650;2023-05-07T09:01:47;22.70;58.40
12704;DHT22;6416;52.182;7.650;2023-05-07T09:04:13;23.00;58.20
12704;DHT22;6416;52.182;7.650;2023-05-07T09:06:38;23.30;58.10
12704;DHT22;6416;52.182;7.650;2023-05-07T09:09:04;23.40;57.10
12704;DHT22;6416;52.182;7.650;2023-05-07T09:11:30;23.60;56.60
12704;DHT22;6416;52.182;7.650;2023-05-07T09:13:58;23.80;56.40
12704;DHT22;6416;52.182;7.650;2023-05-07T09:16:25;23.90;55.70
12704;DHT22;6416;52.182;7.650;2023-05-07T09:18:54;24.00;55.80
12704;DHT22;6416;52.182;7.650;2023-05-07T09:21:20;24.00;55.40
12704;DHT22;6416;52.182;7.650;2023-05-07T09:23:49;24.10;55.30
12704;DHT22;6416;52.182;7.650;2023-05-07T09:26:15;24.20;55.00
12704;DHT22;6416;52.182;7.650;2023-05-07T09:28:41;24.30;54.90
12704;DHT22;6416;52.182;7.650;2023-05-07T09:31:11;24.40;55.00
12704;DHT22;6416;52.182;7.650;2023-05-07T09:33:37;24.50;54.40
12704;DHT22;6416;52.182;7.650;2023-05-07T09:36:04;24.70;55.10
12704;DHT22;6416;52.182;7.650;2023-05-07T09:38:31;24.90;55.10
12704;DHT22;6416;52.182;7.650;2023-05-07T09:41:07;25.10;55.00
12704;DHT22;6416;52.182;7.650;2023-05-07T09:43:35;25.40;53.80
12704;DHT22;6416;52.182;7.650;2023-05-07T09:46:06;25.70;54.60
12704;DHT22;6416;52.182;7.650;2023-05-07T09:48:34;26.10;54.60
12704;DHT22;6416;52.182;7.650;2023-05-07T09:51:02;26.50;54.80
12704;DHT22;6416;52.182;7.650;2023-05-07T09:53:33;27.00;54.20
12704;DHT22;6416;52.182;7.650;2023-05-07T09:55:59;27.40;53.70
12704;DHT22;6416;52.182;7.650;2023-05-07T09:58:25;27.80;53.40
12704;DHT22;6416;52.182;7.650;2023-05-07T10:00:52;28.20;52.50
12704;DHT22;6416;52.182;7.650;2023-05-07T10:03:19;28.60;51.50
12704;DHT22;6416;52.182;7.650;2023-05-07T10:05:46;28.80;50.60
12704;DHT22;6416;52.182;7.650;2023-05-07T10:08:12;29.00;49.70
12704;DHT22;6416;52.182;7.650;2023-05-07T10:10:38;29.20;49.40
12704;DHT22;6416;52.182;7.650;2023-05-07T10:13:04;29.40;49.20
12704;DHT22;6416;52.182;7.650;2023-05-07T10:15:30;29.60;49.20
12704;DHT22;6416;52.182;7.650;2023-05-07T10:17:56;29.80;48.00
12704;DHT22;6416;52.182;7.650;2023-05-07T10:20:22;30.10;48.20
12704;DHT22;6416;52.182;7.650;2023-05-07T10:22:49;30.30;47.60
12704;DHT22;6416;52.182;7.650;2023-05-07T10:25:28;30.50;47.30
12704;DHT22;6416;52.182;7.650;2023-05-07T10:27:56;30.70;46.30
12704;DHT22;6416;52.182;7.650;2023-05-07T10:33:39;31.10;44.70
12704;DHT22;6416;52.182;7.650;2023-05-07T10:36:05;31.30;45.50
12704;DHT22;6416;52.182;7.650;2023-05-07T10:38:31;31.40;45.30
12704;DHT22;6416;52.182;7.650;2023-05-07T10:40:57;31.60;45.40
12704;DHT22;6416;52.182;7.650;2023-05-07T10:43:22;31.90;45.70
12704;DHT22;6416;52.182;7.650;2023-05-07T10:51:27;32.50;41.90
12704;DHT22;6416;52.182;7.650;2023-05-07T10:54:18;32.60;43.60
12704;DHT22;6416;52.182;7.650;2023-05-07T10:56:44;32.80;42.20
12704;DHT22;6416;52.182;7.650;2023-05-07T11:01:55;33.10;41.20
12704;DHT22;6416;52.182;7.650;2023-05-07T11:04:20;33.20;42.60
12704;DHT22;6416;52.182;7.650;2023-05-07T11:09:56;33.50;41.10
12704;DHT22;6416;52.182;7.650;2023-05-07T11:15:10;33.80;40.50
12704;DHT22;6416;52.182;7.650;2023-05-07T11:17:56;33.90;40.20
12704;DHT22;6416;52.182;7.650;2023-05-07T11:20:44;34.00;40.00
12704;DHT22;6416;52.182;7.650;2023-05-07T11:26:07;34.30;38.40
12704;DHT22;6416;52.182;7.650;2023-05-07T11:28:41;34.30;38.80
12704;DHT22;6416;52.182;7.650;2023-05-07T11:31:07;34.40;38.00
12704;DHT22;6416;52.182;7.650;2023-05-07T11:33:34;34.50;38.90
12704;DHT22;6416;52.182;7.650;2023-05-07T11:36:01;34.60;38.50
12704;DHT22;6416;52.182;7.650;2023-05-07T11:38:28;34.70;38.30
12704;DHT22;6416;52.182;7.650;2023-05-07T11:40:58;34.80;38.30
12704;DHT22;6416;52.182;7.650;2023-05-07T11:43:24;34.90;37.50
12704;DHT22;6416;52.182;7.650;2023-05-07T11:45:49;35.00;38.00
12704;DHT22;6416;52.182;7.650;2023-05-07T11:48:16;35.10;37.20
12704;DHT22;6416;52.182;7.650;2023-05-07T11:51:00;35.20;36.30
12704;DHT22;6416;52.182;7.650;2023-05-07T11:53:37;35.20;35.70
12704;DHT22;6416;52.182;7.650;2023-05-07T11:56:07;35.20;36.10
12704;DHT22;6416;52.182;7.650;2023-05-07T11:58:33;35.20;36.30
12704;DHT22;6416;52.182;7.650;2023-05-07T12:00:59;35.30;36.60
12704;DHT22;6416;52.182;7.650;2023-05-07T12:03:24;35.30;36.40
12704;DHT22;6416;52.182;7.650;2023-05-07T12:05:50;35.40;36.40
12704;DHT22;6416;52.182;7.650;2023-05-07T12:08:16;35.50;36.40
12704;DHT22;6416;52.182;7.650;2023-05-07T12:10:42;35.50;36.20
12704;DHT22;6416;52.182;7.650;2023-05-07T12:13:18;35.60;35.60
12704;DHT22;6416;52.182;7.650;2023-05-07T12:15:44;35.60;35.10
12704;DHT22;6416;52.182;7.650;2023-05-07T12:18:13;35.60;35.60
12704;DHT22;6416;52.182;7.650;2023-05-07T12:20:39;35.60;35.60
12704;DHT22;6416;52.182;7.650;2023-05-07T12:23:05;35.60;35.20
12704;DHT22;6416;52.182;7.650;2023-05-07T12:25:32;35.60;35.10
12704;DHT22;6416;52.182;7.650;2023-05-07T12:27:57;35.60;35.30
12704;DHT22;6416;52.182;7.650;2023-05-07T12:30:25;35.70;35.20
12704;DHT22;6416;52.182;7.650;2023-05-07T12:32:54;35.70;35.40
12704;DHT22;6416;52.182;7.650;2023-05-07T12:35:29;35.80;35.30
12704;DHT22;6416;52.182;7.650;2023-05-07T12:37:56;35.90;35.00
12704;DHT22;6416;52.182;7.650;2023-05-07T12:40:22;35.90;35.00
12704;DHT22;6416;52.182;7.650;2023-05-07T12:42:53;36.00;35.00
12704;DHT22;6416;52.182;7.650;2023-05-07T12:45:18;36.00;34.50
12704;DHT22;6416;52.182;7.650;2023-05-07T12:47:45;36.10;35.10
12704;DHT22;6416;52.182;7.650;2023-05-07T12:50:11;36.10;34.80
12704;DHT22;6416;52.182;7.650;2023-05-07T12:52:36;36.10;34.40
12704;DHT22;6416;52.182;7.650;2023-05-07T12:55:06;36.10;33.90
12704;DHT22;6416;52.182;7.650;2023-05-07T12:57:38;36.00;32.90
12704;DHT22;6416;52.182;7.650;2023-05-07T13:00:04;35.90;32.90
12704;DHT22;6416;52.182;7.650;2023-05-07T13:02:47;35.70;32.90
12704;DHT22;6416;52.182;7.650;2023-05-07T13:05:13;35.50;32.40
12704;DHT22;6416;52.182;7.650;2023-05-07T13:07:39;35.30;33.20
12704;DHT22;6416;52.182;7.650;2023-05-07T13:10:05;35.00;33.10
12704;DHT22;6416;52.182;7.650;2023-05-07T13:12:31;34.70;32.90
12704;DHT22;6416;52.182;7.650;2023-05-07T13:14:56;34.40;33.10
12704;DHT22;6416;52.182;7.650;2023-05-07T13:17:21;34.00;33.30
12704;DHT22;6416;52.182;7.650;2023-05-07T13:19:47;33.70;33.70
12704;DHT22;6416;52.182;7.650;2023-05-07T13:22:12;33.40;33.90
12704;DHT22;6416;52.182;7.650;2023-05-07T13:24:38;33.00;34.00
12704;DHT22;6416;52.182;7.650;2023-05-07T13:27:03;32.70;34.50
12704;DHT22;6416;52.182;7.650;2023-05-07T13:29:29;32.50;34.70
12704;DHT22;6416;52.182;7.650;2023-05-07T13:31:58;32.20;34.70
12704;DHT22;6416;52.182;7.650;2023-05-07T13:34:23;31.90;34.90
12704;DHT22;6416;52.182;7.650;2023-05-07T13:36:49;31.70;35.20
12704;DHT22;6416;52.182;7.650;2023-05-07T13:39:14;31.40;35.80
12704;DHT22;6416;52.182;7.650;2023-05-07T13:41:40;31.20;36.20
12704;DHT22;6416;52.182;7.650;2023-05-07T13:44:05;31.10;36.20
12704;DHT22;6416;52.182;7.650;2023-05-07T13:46:31;30.90;36.30
12704;DHT22;6416;52.182;7.650;2023-05-07T13:48:56;30.80;36.80
12704;DHT22;6416;52.182;7.650;2023-05-07T13:51:22;30.70;36.90
12704;DHT22;6416;52.182;7.650;2023-05-07T13:53:47;30.60;37.00
12704;DHT22;6416;52.182;7.650;2023-05-07T13:56:13;30.40;37.20
12704;DHT22;6416;52.182;7.650;2023-05-07T13:58:39;30.30;37.50
12704;DHT22;6416;52.182;7.650;2023-05-07T14:01:04;30.20;37.60
12704;DHT22;6416;52.182;7.650;2023-05-07T14:03:30;30.10;37.50
12704;DHT22;6416;52.182;7.650;2023-05-07T14:05:55;30.10;37.40
12704;DHT22;6416;52.182;7.650;2023-05-07T14:08:21;30.00;37.50
12704;DHT22;6416;52.182;7.650;2023-05-07T14:10:46;29.90;37.60
12704;DHT22;6416;52.182;7.650;2023-05-07T14:13:12;29.80;37.60
12704;DHT22;6416;52.182;7.650;2023-05-07T14:15:37;29.70;37.60
12704;DHT22;6416;52.182;7.650;2023-05-07T14:18:03;29.60;37.70
12704;DHT22;6416;52.182;7.650;2023-05-07T14:20:28;29.50;37.90
12704;DHT22;6416;52.182;7.650;2023-05-07T14:22:54;29.40;37.90
12704;DHT22;6416;52.182;7.650;2023-05-07T14:25:19;29.30;38.00
12704;DHT22;6416;52.182;7.650;2023-05-07T14:27:45;29.30;38.10
12704;DHT22;6416;52.182;7.650;2023-05-07T14:30:11;29.10;38.20
12704;DHT22;6416;52.182;7.650;2023-05-07T14:32:36;28.90;38.30
12704;DHT22;6416;52.182;7.650;2023-05-07T14:35:02;28.80;38.50
12704;DHT22;6416;52.182;7.650;2023-05-07T14:37:27;28.70;38.70
12704;DHT22;6416;52.182;7.650;2023-05-07T14:39:53;28.60;39.00
12704;DHT22;6416;52.182;7.650;2023-05-07T14:42:18;28.50;39.00
12704;DHT22;6416;52.182;7.650;2023-05-07T14:44:44;28.20;39.00
12704;DHT22;6416;52.182;7.650;2023-05-07T14:47:09;28.30;39.40
12704;DHT22;6416;52.182;7.650;2023-05-07T14:49:35;28.20;39.40
12704;DHT22;6416;52.182;7.650;2023-05-07T14:52:00;28.20;39.70
12704;DHT22;6416;52.182;7.650;2023-05-07T14:54:26;28.10;40.00
12704;DHT22;6416;52.182;7.650;2023-05-07T14:56:51;28.00;40.20
12704;DHT22;6416;52.182;7.650;2023-05-07T14:59:18;27.90;40.30
12704;DHT22;6416;52.182;7.650;2023-05-07T15:01:47;27.80;40.40
12704;DHT22;6416;52.182;7.650;2023-05-07T15:04:13;27.80;40.80
12704;DHT22;6416;52.182;7.650;2023-05-07T15:06:38;27.80;40.80
12704;DHT22;6416;52.182;7.650;2023-05-07T15:09:04;27.70;40.90
12704;DHT22;6416;52.182;7.650;2023-05-07T15:11:29;27.80;41.00
12704;DHT22;6416;52.182;7.650;2023-05-07T15:13:55;27.70;41.10
12704;DHT22;6416;52.182;7.650;2023-05-07T15:16:21;27.70;41.20
12704;DHT22;6416;52.182;7.650;2023-05-07T15:18:47;27.70;41.40
12704;DHT22;6416;52.182;7.650;2023-05-07T15:21:13;27.60;41.60
12704;DHT22;6416;52.182;7.650;2023-05-07T15:23:38;27.60;41.70
12704;DHT22;6416;52.182;7.650;2023-05-07T15:26:04;27.60;41.70
12704;DHT22;6416;52.182;7.650;2023-05-07T15:28:30;27.60;41.60
12704;DHT22;6416;52.182;7.650;2023-05-07T15:30:55;27.60;41.70
12704;DHT22;6416;52.182;7.650;2023-05-07T15:33:21;27.50;41.50
12704;DHT22;6416;52.182;7.650;2023-05-07T15:35:46;27.50;41.60
12704;DHT22;6416;52.182;7.650;2023-05-07T15:38:11;27.40;41.70
12704;DHT22;6416;52.182;7.650;2023-05-07T15:40:37;27.40;41.80
12704;DHT22;6416;52.182;7.650;2023-05-07T15:43:02;27.30;41.80
12704;DHT22;6416;52.182;7.650;2023-05-07T15:45:28;27.20;41.80
12704;DHT22;6416;52.182;7.650;2023-05-07T15:47:53;27.10;42.70
12704;DHT22;6416;52.182;7.650;2023-05-07T15:50:19;27.00;42.10
12704;DHT22;6416;52.182;7.650;2023-05-07T15:52:44;26.90;42.20
12704;DHT22;6416;52.182;7.650;2023-05-07T15:55:10;26.80;42.40
12704;DHT22;6416;52.182;7.650;2023-05-07T15:57:35;26.70;42.40
12704;DHT22;6416;52.182;7.650;2023-05-07T16:00:01;26.70;42.50